Airfield :
LOGIN :

Register | Disclaimer

   EN    FR    IT 

 










Legend :    VFR   Marginal VFR   IFR   Intensive IFR   Very Intensive IFR
Visi :
Ceiling :
>= 8 km
>= 3000ft
5 to 8 km
1000 to 3000 ft
1500m to 5 km
500 to 1000 ft
800 to 1500m
200 to 500 ft
< 800m
< 200 ft
Symbols :   Thunderstorms  Fog  Heavy snow  Heavy precipitations  Wind > 20 kt
SIGMETs :     Misc.  Thunderstorms  Icing  Turbulence  Mountain Waves  Volcanic Ashes






- Airport Elevation : 220 ft
- IATA code : CWL


EGFF - Cardiff Rhoose

CURRENT METAR :
  • 210920Z 30013KT 9999 FEW020 16/12 Q1012

EXPIRED METARs :
  • 210850Z AUTO 29013KT 9999 NCD 15/12 Q1012
  • 210820Z AUTO 28011KT 9999 NCD 15/12 Q1012
  • 210750Z AUTO 29010KT 9999 NCD 15/12 Q1012
  • 210720Z AUTO 29008KT 9999 SCT013 15/13 Q1012
  • 210650Z AUTO 30008KT 9999 NCD 15/13 Q1011
  • 210620Z AUTO 31008KT 9999 SCT021 BKN033 15/13 Q1011
  • 210550Z AUTO 32008KT 9999 SCT022 15/14 Q1011
  • 210520Z AUTO 32008KT 9999 NCD 14/14 Q1010

TAF COR TAF EGFF
Valid from the 21 at 06:00 until the 22 at 06:00 UTC


210638Z 2106/2206 30010KT 9999 SCT045
BECMG 2121/2124 19010KT
BECMG 2200/2203 BKN012
TEMPO 2201/2206 6000 -DZ BKN008
PROB30
TEMPO 2203/2206 BKN004
ATIS : +44 1446 729 319



MET'MAP, your aeronautical weather chart ! - Copyright ORBIFLY December 2007 - Disclaimer

ORBIFLY MET'MAP TEAM :

Programming & Development : Alexandra Zaïnal
Original concept : Baudouin d'Aumeries
Technical & hardware support : Manuel Goepfert
Assistance : Marc-Olivier Méhu




SOURCES & CREDITS :

   NOAA